Time;durP1;ratioP1;P1;durP2;ratioP2;P2;SDS_P1;SDS_P2;PMS_P1;PMS_P2;Temp;Humidity;BMP_temperature;BMP_pressure;BME280_temperature;BME280_humidity;BME280_pressure;Samples;Min_cycle;Max_cycle;Signal;HPM_P1;HPM_P2
2023/03/10 00:01:25;;;;;;;3.33;1.23;;;;;;;9.37;89.57;153766.22;5094536;28;20900;-77
2023/03/10 00:03:53;;;;;;;3.07;1.53;;;;;;;9.33;87.29;153755.91;5105487;28;20472;-78
2023/03/10 00:06:21;;;;;;;2.37;1.60;;;;;;;9.36;89.08;153763.66;5093901;28;20564;-79
2023/03/10 00:08:48;;;;;;;3.60;1.80;;;;;;;9.36;87.65;153763.66;5110962;28;20480;-79
2023/03/10 00:11:16;;;;;;;2.00;1.20;;;;;;;9.36;89.74;153763.66;5089552;28;20444;-78
2023/03/10 00:13:43;;;;;;;2.60;1.10;;;;;;;9.31;85.83;153750.75;5098287;28;20479;-79
2023/03/10 00:16:14;;;;;;;3.63;1.40;;;;;;;9.32;88.36;153753.31;5106544;28;20465;-78
2023/03/10 00:18:41;;;;;;;3.33;1.37;;;;;;;9.31;86.88;153749.44;5111842;28;20555;-78
2023/03/10 00:21:10;;;;;;;2.70;1.50;;;;;;;9.31;86.00;153750.75;5090892;28;20445;-78
2023/03/10 00:23:37;;;;;;;3.00;1.67;;;;;;;9.30;84.92;153748.13;5085481;28;20462;-79
2023/03/10 00:26:04;;;;;;;5.13;1.63;;;;;;;9.32;85.03;153752.03;5104071;28;20455;-78
2023/03/10 00:28:32;;;;;;;2.20;1.40;;;;;;;9.31;83.93;153750.75;5105089;28;20442;-78
2023/03/10 00:31:01;;;;;;;1.93;1.17;;;;;;;9.36;85.01;153762.38;5077071;28;21036;-78
2023/03/10 00:33:28;;;;;;;4.30;1.57;;;;;;;9.40;84.37;153774.00;5091928;28;20872;-78
2023/03/10 00:36:08;;;;;;;3.50;1.53;;;;;;;9.38;85.71;153768.84;5088999;28;20913;-78
2023/03/10 00:38:36;;;;;;;3.80;1.17;;;;;;;9.37;84.89;153766.22;5107841;28;20535;-78
2023/03/10 00:41:06;;;;;;;2.73;1.30;;;;;;;9.40;86.98;153772.75;5067468;28;20543;-78
2023/03/10 00:43:35;;;;;;;1.50;0.83;;;;;;;9.36;86.72;153762.38;5070927;28;21042;-78
2023/03/10 00:46:02;;;;;;;2.20;1.43;;;;;;;9.36;87.30;153763.66;5070065;28;20441;-78
2023/03/10 00:48:29;;;;;;;1.60;1.20;;;;;;;9.35;87.77;153761.06;5090073;28;20437;-78
2023/03/10 00:50:56;;;;;;;2.17;1.20;;;;;;;9.37;89.29;153766.22;5105774;28;20461;-78
2023/03/10 00:53:24;;;;;;;1.40;1.03;;;;;;;9.38;89.46;153767.53;5089370;28;20448;-78
2023/03/10 00:55:58;;;;;;;2.10;1.37;;;;;;;9.36;88.81;153763.66;5102802;28;20479;-78
2023/03/10 00:58:26;;;;;;;2.00;1.10;;;;;;;9.39;90.67;153771.44;5108763;28;20485;-78
2023/03/10 01:00:54;;;;;;;3.77;1.07;;;;;;;9.32;88.77;153753.31;5098631;28;20802;-78
2023/03/10 01:03:22;;;;;;;2.90;1.23;;;;;;;9.30;90.04;153748.13;5075522;28;20513;-77
2023/03/10 01:05:48;;;;;;;2.60;1.00;;;;;;;9.30;91.25;153746.84;5072140;28;20449;-77
2023/03/10 01:08:15;;;;;;;3.20;1.40;;;;;;;9.26;91.82;153737.81;5084666;28;20467;-77
2023/03/10 01:10:42;;;;;;;1.60;1.13;;;;;;;9.22;91.63;153726.13;5073525;28;20491;-77
2023/03/10 01:13:09;;;;;;;2.60;1.10;;;;;;;9.21;89.77;153724.88;5102782;28;20845;-77
2023/03/10 01:15:36;;;;;;;2.73;1.33;;;;;;;9.24;91.18;153732.59;5084656;28;20740;-77
2023/03/10 01:18:05;;;;;;;1.93;1.27;;;;;;;9.22;92.67;153727.44;5094729;28;20465;-78
2023/03/10 01:20:32;;;;;;;2.60;1.50;;;;;;;9.18;93.09;153717.13;5106218;28;20786;-77
2023/03/10 01:22:59;;;;;;;3.07;1.60;;;;;;;9.19;94.10;153719.69;5106656;28;20497;-77
2023/03/10 01:25:27;;;;;;;2.10;1.53;;;;;;;9.15;94.69;153709.34;5073405;28;20452;-77
2023/03/10 01:27:54;;;;;;;1.87;1.20;;;;;;;9.10;95.76;153697.72;5083495;28;20481;-77
2023/03/10 01:30:21;;;;;;;5.33;1.73;;;;;;;9.05;95.00;153683.50;5084178;28;20775;-77
2023/03/10 01:32:47;;;;;;;2.20;1.20;;;;;;;9.05;95.03;153684.75;5095354;28;20790;-78
2023/03/10 01:35:15;;;;;;;3.50;1.60;;;;;;;9.03;94.21;153678.28;5101850;28;20508;-77
2023/03/10 01:37:42;;;;;;;1.90;1.20;;;;;;;9.04;92.90;153680.88;5086758;28;20529;-78
2023/03/10 01:40:15;;;;;;;2.07;1.33;;;;;;;9.08;95.00;153691.25;5065548;28;20453;-78
2023/03/10 01:42:42;;;;;;;1.40;1.07;;;;;;;9.03;93.01;153679.59;5097124;28;20935;-78
2023/03/10 01:45:30;;;;;;;2.03;1.13;;;;;;;9.06;93.27;153686.06;5088888;28;20488;-78
2023/03/10 01:47:57;;;;;;;2.70;1.47;;;;;;;9.03;90.19;153679.59;5073251;28;20454;-78
2023/03/10 01:50:25;;;;;;;2.73;1.20;;;;;;;9.06;90.88;153686.06;5073302;28;20452;-78
2023/03/10 01:52:57;;;;;;;1.50;1.00;;;;;;;9.15;89.64;153709.34;5092290;28;20531;-77
2023/03/10 01:55:25;;;;;;;3.07;1.90;;;;;;;9.17;88.92;153715.81;5081513;28;20537;-77
2023/03/10 01:57:54;;;;;;;2.37;1.20;;;;;;;9.16;89.82;153711.91;5077426;28;20425;-78
2023/03/10 02:00:22;;;;;;;3.67;1.30;;;;;;;9.11;91.46;153698.97;5085632;28;20825;-77
2023/03/10 02:02:56;;;;;;;2.10;1.40;;;;;;;9.11;89.74;153698.97;5066688;28;20453;-77
2023/03/10 02:05:25;;;;;;;4.90;1.40;;;;;;;9.09;90.85;153693.81;5085153;28;20541;-77
2023/03/10 02:07:52;;;;;;;1.90;1.37;;;;;;;9.14;89.80;153708.03;5085089;28;20525;-77
2023/03/10 02:10:21;;;;;;;1.77;1.10;;;;;;;9.13;91.39;153705.44;5092444;28;20464;-77
2023/03/10 02:12:51;;;;;;;2.90;1.20;;;;;;;9.08;89.84;153691.25;5089538;28;20445;-77
2023/03/10 02:15:18;;;;;;;3.07;1.10;;;;;;;9.13;93.49;153705.44;5111697;28;20483;-77
2023/03/10 02:17:44;;;;;;;2.40;0.90;;;;;;;9.14;92.97;153706.75;5083401;28;20735;-77
2023/03/10 02:20:29;;;;;;;2.67;1.17;;;;;;;9.09;92.78;153693.81;5079479;28;20541;-77
2023/03/10 02:22:57;;;;;;;1.40;0.97;;;;;;;9.16;93.75;153711.91;5084656;28;20490;-77
2023/03/10 02:25:40;;;;;;;3.47;1.23;;;;;;;9.22;93.36;153727.44;5080494;28;20499;-77
2023/03/10 02:28:08;;;;;;;2.23;1.10;;;;;;;9.22;94.70;153727.44;5089946;28;21244;-76
2023/03/10 02:30:38;;;;;;;2.40;0.90;;;;;;;9.23;96.03;153728.75;5065573;28;20454;-76
2023/03/10 02:33:07;;;;;;;1.67;1.00;;;;;;;9.16;96.51;153711.91;5089347;28;20859;-77
2023/03/10 02:35:33;;;;;;;1.47;1.00;;;;;;;9.16;96.10;153713.22;5086242;28;20580;-77
2023/03/10 02:38:05;;;;;;;1.70;1.00;;;;;;;9.14;97.01;153708.03;5069734;28;21070;-77
2023/03/10 02:40:36;;;;;;;2.30;1.00;;;;;;;9.12;95.93;153701.59;5098550;28;20448;-78
2023/03/10 02:43:16;;;;;;;2.10;1.23;;;;;;;9.16;97.85;153711.91;5088363;28;20442;-78
2023/03/10 02:45:44;;;;;;;1.53;1.00;;;;;;;9.15;98.40;153709.34;5063787;28;20699;-77
2023/03/10 02:48:13;;;;;;;1.70;1.20;;;;;;;9.14;99.23;153706.75;5062185;28;20485;-77
2023/03/10 02:50:42;;;;;;;1.20;0.70;;;;;;;9.13;99.92;153704.19;5083699;28;20548;-77
2023/03/10 02:53:12;;;;;;;4.67;1.50;;;;;;;9.04;100.00;153682.19;5091073;28;20508;-77
2023/03/10 02:55:39;;;;;;;1.37;1.00;;;;;;;9.06;99.95;153686.06;5071703;28;20454;-77
2023/03/10 02:58:06;;;;;;;3.17;1.07;;;;;;;9.06;100.00;153686.06;5085527;28;20451;-77
2023/03/10 03:00:37;;;;;;;2.23;1.40;;;;;;;9.02;100.00;153675.72;5081713;28;20499;-77
2023/03/10 03:03:04;;;;;;;1.13;0.70;;;;;;;9.08;100.00;153691.25;5069432;28;20437;-77
2023/03/10 03:05:30;;;;;;;2.30;0.53;;;;;;;9.06;100.00;153686.06;5071547;28;20537;-77
2023/03/10 03:07:57;;;;;;;1.20;0.80;;;;;;;9.01;100.00;153674.44;5076712;28;20445;-77
2023/03/10 03:10:24;;;;;;;1.87;1.00;;;;;;;8.96;100.00;153661.50;5089234;28;20438;-77
2023/03/10 03:12:51;;;;;;;1.63;0.60;;;;;;;8.97;100.00;153662.81;5092271;28;20442;-77
2023/03/10 03:15:19;;;;;;;1.10;0.90;;;;;;;8.94;100.00;153655.03;5071167;28;20917;-77
2023/03/10 03:17:47;;;;;;;1.87;0.90;;;;;;;8.91;100.00;153647.28;5064962;28;20488;-77
2023/03/10 03:20:15;;;;;;;2.23;0.70;;;;;;;8.87;100.00;153636.94;5073587;28;20505;-77
2023/03/10 03:22:45;;;;;;;1.37;1.03;;;;;;;8.88;100.00;153640.81;5074541;28;20425;-78
2023/03/10 03:25:14;;;;;;;1.30;0.80;;;;;;;8.86;100.00;153635.66;5069924;28;20515;-77
2023/03/10 03:27:41;;;;;;;1.90;0.90;;;;;;;8.82;100.00;153623.97;5070638;28;20469;-77
2023/03/10 03:30:11;;;;;;;1.30;0.87;;;;;;;8.84;100.00;153630.44;5081659;28;20458;-77
2023/03/10 03:32:38;;;;;;;1.00;0.80;;;;;;;8.82;100.00;153623.97;5066220;28;20537;-77
2023/03/10 03:35:11;;;;;;;1.70;0.60;;;;;;;8.86;100.00;153635.66;5068116;28;20454;-78
2023/03/10 03:37:37;;;;;;;1.10;0.60;;;;;;;8.81;100.00;153621.41;5059711;28;20523;-78
2023/03/10 03:40:11;;;;;;;1.00;0.50;;;;;;;8.78;100.00;153614.97;5081486;28;20544;-77
2023/03/10 03:42:39;;;;;;;1.03;0.50;;;;;;;8.78;100.00;153613.66;5102155;28;20441;-78
2023/03/10 03:45:07;;;;;;;1.10;0.50;;;;;;;8.74;100.00;153603.28;5075003;28;20450;-77
2023/03/10 03:47:34;;;;;;;1.23;0.50;;;;;;;8.73;100.00;153600.72;5072355;28;20889;-78
2023/03/10 03:50:02;;;;;;;2.17;0.70;;;;;;;8.73;100.00;153600.72;5072049;28;20469;-78
2023/03/10 03:52:31;;;;;;;1.93;0.50;;;;;;;8.71;100.00;153595.56;5093004;28;21003;-78
2023/03/10 03:54:58;;;;;;;1.20;0.50;;;;;;;8.74;100.00;153604.59;5104489;28;20448;-78
2023/03/10 03:57:25;;;;;;;1.33;0.40;;;;;;;8.75;100.00;153607.19;5060068;28;21019;-78
2023/03/10 03:59:52;;;;;;;0.80;0.47;;;;;;;8.77;100.00;153612.34;5076011;28;20943;-77
2023/03/10 04:02:19;;;;;;;1.10;0.60;;;;;;;8.73;100.00;153600.72;5086856;28;20456;-78
2023/03/10 04:04:46;;;;;;;1.00;0.50;;;;;;;8.71;100.00;153595.56;5082088;28;20450;-78
2023/03/10 04:07:15;;;;;;;1.00;0.43;;;;;;;8.69;100.00;153590.38;5077728;28;20651;-78
2023/03/10 04:09:43;;;;;;;1.00;0.50;;;;;;;8.72;100.00;153598.13;5068757;28;20460;-78
2023/03/10 04:12:10;;;;;;;1.00;0.40;;;;;;;8.73;100.00;153600.72;5070962;28;20536;-78
2023/03/10 04:14:39;;;;;;;2.00;0.50;;;;;;;8.71;100.00;153596.81;5087406;28;20490;-78
2023/03/10 04:17:06;;;;;;;1.50;0.50;;;;;;;8.69;100.00;153591.66;5085043;28;20847;-77
2023/03/10 04:19:33;;;;;;;2.00;0.60;;;;;;;8.66;100.00;153582.66;5082249;28;20461;-77
2023/03/10 04:22:05;;;;;;;0.80;0.33;;;;;;;8.64;100.00;153577.44;5062209;28;20442;-77
2023/03/10 04:24:33;;;;;;;0.83;0.40;;;;;;;8.68;100.00;153587.81;5071954;28;20450;-78
2023/03/10 04:27:01;;;;;;;2.13;0.60;;;;;;;8.65;100.00;153580.03;5081155;28;20516;-77
2023/03/10 04:29:28;;;;;;;1.53;0.80;;;;;;;8.61;100.00;153570.97;5060913;28;20824;-78
2023/03/10 04:31:57;;;;;;;0.90;0.60;;;;;;;8.58;100.00;153563.22;5081727;28;20478;-78
2023/03/10 04:34:23;;;;;;;1.20;0.47;;;;;;;8.56;100.00;153558.06;5066696;28;20468;-78
2023/03/10 04:36:50;;;;;;;1.40;0.70;;;;;;;8.55;100.00;153556.75;5092182;28;20472;-78
2023/03/10 04:39:18;;;;;;;0.90;0.40;;;;;;;8.52;100.00;153547.75;5061777;28;20450;-78
2023/03/10 04:41:45;;;;;;;1.30;0.50;;;;;;;8.51;100.00;153546.44;5087499;28;20936;-78
2023/03/10 04:44:13;;;;;;;0.90;0.57;;;;;;;8.54;100.00;153554.19;5099236;28;20522;-77
2023/03/10 04:46:40;;;;;;;1.20;0.60;;;;;;;8.51;100.00;153546.44;5099159;28;20546;-76
2023/03/10 04:49:08;;;;;;;1.60;0.93;;;;;;;8.48;100.00;153537.38;5089609;28;20806;-77
2023/03/10 04:51:35;;;;;;;8.80;5.47;;;;;;;8.50;100.00;153542.53;5090225;28;20421;-77
2023/03/10 04:54:01;;;;;;;2.50;2.00;;;;;;;8.47;100.00;153536.06;5065459;28;20866;-77
2023/03/10 04:56:31;;;;;;;1.57;1.13;;;;;;;8.47;100.00;153536.06;5077038;28;20918;-77
2023/03/10 04:58:58;;;;;;;1.47;1.33;;;;;;;8.48;100.00;153538.69;5078065;28;20446;-77
2023/03/10 05:01:31;;;;;;;2.53;2.03;;;;;;;8.48;100.00;153537.38;5073689;28;20454;-78
2023/03/10 05:03:59;;;;;;;4.97;4.50;;;;;;;8.48;100.00;153538.69;5074701;28;20828;-77
2023/03/10 05:06:26;;;;;;;4.40;3.63;;;;;;;8.54;100.00;153552.91;5056592;28;20482;-77
2023/03/10 05:09:16;;;;;;;1.63;1.53;;;;;;;8.51;100.00;153546.44;5074884;28;20446;-78
2023/03/10 05:11:43;;;;;;;1.57;1.37;;;;;;;8.48;100.00;153538.69;5066817;28;20451;-77
2023/03/10 05:14:10;;;;;;;3.00;0.80;;;;;;;8.47;100.00;153536.06;5066145;28;20458;-77
2023/03/10 05:16:38;;;;;;;1.53;1.10;;;;;;;8.42;100.00;153523.16;5068532;28;20473;-77
2023/03/10 05:19:05;;;;;;;1.33;0.80;;;;;;;8.41;100.00;153520.59;5080909;28;20444;-77
2023/03/10 05:21:33;;;;;;;1.30;0.87;;;;;;;8.38;100.00;153512.84;5079459;28;20528;-78
2023/03/10 05:24:01;;;;;;;1.20;0.77;;;;;;;8.34;100.00;153502.47;5063980;28;20910;-77
2023/03/10 05:26:28;;;;;;;1.73;0.60;;;;;;;8.32;100.00;153497.31;5079694;28;20442;-78
2023/03/10 05:28:55;;;;;;;3.40;0.90;;;;;;;8.28;100.00;153487.00;5071995;28;20438;-77
2023/03/10 05:31:34;;;;;;;1.30;0.87;;;;;;;8.25;100.00;153479.19;5061767;28;20544;-77
2023/03/10 05:34:08;;;;;;;1.60;1.20;;;;;;;8.26;100.00;153481.75;5079657;28;20446;-78
2023/03/10 05:36:35;;;;;;;2.07;0.77;;;;;;;8.25;100.00;153479.19;5079285;28;20443;-78
2023/03/10 05:39:05;;;;;;;1.37;0.70;;;;;;;8.25;100.00;153477.88;5064145;28;20500;-78
2023/03/10 05:41:35;;;;;;;1.23;0.80;;;;;;;8.22;100.00;153471.44;5058151;28;20454;-78
2023/03/10 05:44:03;;;;;;;1.67;1.13;;;;;;;8.22;100.00;153471.44;5091079;28;20811;-78
2023/03/10 05:46:30;;;;;;;1.23;0.70;;;;;;;8.21;100.00;153468.81;5080770;28;20533;-78
2023/03/10 05:48:58;;;;;;;2.40;0.80;;;;;;;8.24;100.00;153476.59;5066007;28;20464;-78
2023/03/10 05:51:28;;;;;;;2.13;0.63;;;;;;;8.25;100.00;153479.19;5072254;28;20438;-78
2023/03/10 05:53:55;;;;;;;1.23;0.70;;;;;;;8.27;100.00;153484.41;5072237;28;20524;-78
2023/03/10 05:56:26;;;;;;;1.73;0.90;;;;;;;8.31;100.00;153493.47;5056729;28;20558;-78
2023/03/10 05:58:58;;;;;;;0.80;0.57;;;;;;;8.35;100.00;153505.06;5083393;28;20507;-78
2023/03/10 06:01:29;;;;;;;1.83;0.80;;;;;;;8.37;100.00;153508.94;5063085;28;20451;-78
2023/03/10 06:03:56;;;;;;;1.63;0.70;;;;;;;8.45;100.00;153530.91;5065127;28;20449;-78
2023/03/10 06:06:23;;;;;;;1.40;0.70;;;;;;;8.46;100.00;153533.53;5069920;28;20446;-78
2023/03/10 06:08:51;;;;;;;2.60;0.70;;;;;;;8.52;100.00;153547.75;5076026;28;20541;-78
2023/03/10 06:11:18;;;;;;;3.80;1.30;;;;;;;8.53;100.00;153551.59;5073505;28;20454;-78
2023/03/10 06:13:45;;;;;;;1.40;0.83;;;;;;;8.54;100.00;153554.19;5072404;28;20473;-78
2023/03/10 06:16:12;;;;;;;1.90;0.77;;;;;;;8.55;100.00;153555.50;5074694;28;20457;-77
2023/03/10 06:18:38;;;;;;;1.90;0.90;;;;;;;8.52;100.00;153547.75;5079719;28;20542;-78
2023/03/10 06:21:06;;;;;;;1.53;1.13;;;;;;;8.51;100.00;153546.44;5094465;28;20481;-77
2023/03/10 06:23:33;;;;;;;2.20;0.80;;;;;;;8.50;100.00;153543.84;5075779;28;20444;-77
2023/03/10 06:26:04;;;;;;;1.87;0.93;;;;;;;8.48;100.00;153538.69;5093674;28;20606;-77
2023/03/10 06:28:32;;;;;;;1.77;0.90;;;;;;;8.45;100.00;153530.91;5097935;28;20528;-77
2023/03/10 06:30:59;;;;;;;1.70;1.27;;;;;;;8.40;100.00;153518.00;5076768;28;20480;-77
2023/03/10 06:33:27;;;;;;;1.83;0.63;;;;;;;8.37;100.00;153510.22;5089389;28;20456;-79
2023/03/10 06:35:53;;;;;;;1.30;0.93;;;;;;;8.36;100.00;153507.69;5084134;28;20456;-77
2023/03/10 06:38:21;;;;;;;1.60;0.70;;;;;;;8.39;100.00;153514.13;5095497;28;20990;-77
2023/03/10 06:40:48;;;;;;;1.30;0.60;;;;;;;8.35;100.00;153503.78;5085287;28;20458;-77
2023/03/10 06:43:16;;;;;;;1.43;0.50;;;;;;;8.30;100.00;153492.16;5088440;28;20869;-76
2023/03/10 06:45:43;;;;;;;1.60;0.97;;;;;;;8.32;100.00;153497.31;5077979;28;20451;-76
2023/03/10 06:48:10;;;;;;;1.77;0.87;;;;;;;8.31;100.00;153494.72;5078284;28;20503;-77
2023/03/10 06:50:41;;;;;;;1.10;0.77;;;;;;;8.32;100.00;153497.31;5062415;28;20686;-77
2023/03/10 06:53:08;;;;;;;1.47;0.80;;;;;;;8.31;100.00;153494.72;5075737;28;20454;-77
2023/03/10 06:55:35;;;;;;;1.83;0.80;;;;;;;8.25;100.00;153477.88;5075181;28;20997;-76
2023/03/10 06:58:01;;;;;;;1.60;0.80;;;;;;;8.24;100.00;153476.59;5081054;28;20469;-77
2023/03/10 07:00:30;;;;;;;1.53;1.10;;;;;;;8.22;100.00;153470.13;5094807;28;20820;-77
2023/03/10 07:02:56;;;;;;;1.17;0.70;;;;;;;8.25;100.00;153479.19;5096926;28;20452;-76
2023/03/10 07:05:23;;;;;;;2.13;1.23;;;;;;;8.39;100.00;153514.13;5096951;28;20548;-76
2023/03/10 07:07:50;;;;;;;2.43;1.30;;;;;;;8.69;100.00;153591.66;5063627;28;20484;-76
2023/03/10 07:10:18;;;;;;;1.67;0.70;;;;;;;8.74;100.00;153604.59;5082408;28;20485;-76
2023/03/10 07:12:47;;;;;;;1.30;0.70;;;;;;;8.72;100.00;153599.44;5066378;28;20482;-76
2023/03/10 07:15:14;;;;;;;0.90;0.60;;;;;;;8.75;100.00;153605.91;5099259;28;20868;-77
2023/03/10 07:17:43;;;;;;;3.37;0.80;;;;;;;8.72;100.00;153598.13;5097477;28;20500;-77
2023/03/10 07:20:12;;;;;;;1.30;0.70;;;;;;;8.74;100.00;153603.28;5095908;28;20446;-77
2023/03/10 07:22:39;;;;;;;1.63;1.07;;;;;;;8.78;100.00;153614.97;5079781;28;20536;-76
2023/03/10 07:25:06;;;;;;;1.63;0.70;;;;;;;8.76;100.00;153608.50;5080049;28;20450;-76
2023/03/10 07:27:33;;;;;;;2.13;0.80;;;;;;;8.82;100.00;153625.28;5094630;28;20488;-76
2023/03/10 07:30:00;;;;;;;1.00;0.60;;;;;;;8.86;100.00;153635.66;5096053;28;20449;-76
2023/03/10 07:32:26;;;;;;;0.90;0.50;;;;;;;8.95;100.00;153657.59;5086508;28;20484;-76
2023/03/10 07:34:54;;;;;;;1.33;0.63;;;;;;;9.04;100.00;153680.88;5095185;28;20876;-76
2023/03/10 07:37:21;;;;;;;0.90;0.57;;;;;;;9.12;100.00;153701.59;5099236;28;20441;-77
2023/03/10 07:39:48;;;;;;;1.40;0.70;;;;;;;9.15;100.00;153709.34;5070367;28;20472;-77
2023/03/10 07:42:15;;;;;;;2.17;1.27;;;;;;;9.15;100.00;153710.66;5074814;28;20532;-76
2023/03/10 07:44:42;;;;;;;4.50;0.80;;;;;;;9.15;100.00;153709.34;5078735;28;20480;-77
2023/03/10 07:47:09;;;;;;;1.17;0.60;;;;;;;9.15;100.00;153710.66;5081007;28;20449;-77
2023/03/10 07:49:36;;;;;;;1.67;0.60;;;;;;;9.16;100.00;153711.91;5070197;28;20442;-76
2023/03/10 07:52:04;;;;;;;1.10;0.80;;;;;;;9.09;100.00;153695.13;5080342;28;20795;-77
2023/03/10 07:54:31;;;;;;;2.80;1.00;;;;;;;9.09;100.00;153693.81;5079480;28;20610;-77
2023/03/10 07:56:57;;;;;;;1.00;0.50;;;;;;;9.09;100.00;153695.13;5080622;28;20449;-77
2023/03/10 07:59:24;;;;;;;3.73;1.73;;;;;;;9.12;100.00;153701.59;5094708;28;20477;-76
2023/03/10 08:01:51;;;;;;;1.73;1.10;;;;;;;9.10;100.00;153696.41;5094920;28;20448;-77
2023/03/10 08:04:18;;;;;;;1.10;0.70;;;;;;;9.11;100.00;153698.97;5096282;28;20571;-77
2023/03/10 08:06:45;;;;;;;1.10;0.60;;;;;;;9.11;100.00;153698.97;5077145;28;20445;-77
2023/03/10 08:09:13;;;;;;;2.60;0.80;;;;;;;9.10;100.00;153696.41;5074183;28;20465;-78
2023/03/10 08:11:40;;;;;;;1.10;0.70;;;;;;;9.09;100.00;153693.81;5079734;28;20449;-76
2023/03/10 08:14:06;;;;;;;1.10;0.70;;;;;;;9.06;100.00;153686.06;5075405;28;20510;-77
2023/03/10 08:16:33;;;;;;;2.90;0.90;;;;;;;8.99;100.00;153667.97;5098018;27;20882;-77
2023/03/10 08:19:00;;;;;;;1.40;0.57;;;;;;;8.90;100.00;153645.97;5077603;28;20586;-76
2023/03/10 08:21:27;;;;;;;0.90;0.40;;;;;;;8.83;100.00;153627.88;5090324;28;20450;-76
2023/03/10 08:23:54;;;;;;;1.60;0.57;;;;;;;8.81;100.00;153621.41;5095287;28;20459;-76
2023/03/10 08:26:23;;;;;;;1.37;0.70;;;;;;;8.68;100.00;153589.13;5064181;27;20986;-77
2023/03/10 08:28:50;;;;;;;1.00;0.47;;;;;;;8.60;100.00;153567.13;5089075;28;21031;-77
2023/03/10 08:31:19;;;;;;;1.17;0.50;;;;;;;8.54;100.00;153554.19;5093232;27;20522;-77
2023/03/10 08:33:46;;;;;;;0.70;0.40;;;;;;;8.56;100.00;153559.38;5079459;28;20497;-77
2023/03/10 08:36:14;;;;;;;1.20;0.50;;;;;;;8.53;100.00;153551.59;5095266;28;20463;-77
2023/03/10 08:38:41;;;;;;;1.33;0.40;;;;;;;8.55;100.00;153556.75;5079215;28;20493;-77
2023/03/10 08:41:10;;;;;;;0.90;0.33;;;;;;;8.51;100.00;153545.13;5074019;28;21008;-77
2023/03/10 08:43:39;;;;;;;1.60;0.50;;;;;;;8.52;100.00;153547.75;5062441;28;20508;-76
2023/03/10 08:46:06;;;;;;;0.90;0.40;;;;;;;8.49;100.00;153541.28;5078039;28;20439;-77
2023/03/10 08:48:33;;;;;;;0.90;0.50;;;;;;;8.50;100.00;153543.84;5080089;28;20605;-77
2023/03/10 08:51:00;;;;;;;0.90;0.40;;;;;;;8.52;100.00;153549.00;5093988;28;20849;-77
2023/03/10 08:53:26;;;;;;;3.00;0.70;;;;;;;8.51;100.00;153546.44;5073664;28;20928;-77
2023/03/10 08:55:53;;;;;;;3.43;0.60;;;;;;;8.61;100.00;153570.97;5093854;28;20503;-77
2023/03/10 08:58:20;;;;;;;1.37;0.57;;;;;;;8.74;100.00;153603.28;5077488;28;20466;-77
2023/03/10 09:00:48;;;;;;;1.00;0.60;;;;;;;8.75;100.00;153605.91;5075939;28;20445;-77
2023/03/10 09:03:15;;;;;;;1.47;0.50;;;;;;;8.81;100.00;153621.41;5076115;28;20885;-77
2023/03/10 09:05:42;;;;;;;1.03;0.60;;;;;;;8.95;100.00;153657.59;5078281;28;20455;-78
2023/03/10 09:08:09;;;;;;;0.97;0.57;;;;;;;9.05;100.00;153683.50;5076656;28;20537;-76
2023/03/10 09:10:36;;;;;;;1.20;0.57;;;;;;;9.05;100.00;153684.75;5079450;28;20460;-78
2023/03/10 09:13:04;;;;;;;1.00;0.60;;;;;;;9.12;100.00;153701.59;5080526;28;20451;-78
2023/03/10 09:15:30;;;;;;;1.80;0.70;;;;;;;9.16;100.00;153711.91;5075090;28;20740;-78
2023/03/10 09:18:00;;;;;;;1.10;0.60;;;;;;;9.24;100.00;153732.59;5079064;28;20485;-77
2023/03/10 09:20:27;;;;;;;2.13;1.13;;;;;;;9.43;100.00;153780.47;5062586;28;20961;-77
2023/03/10 09:22:54;;;;;;;1.83;0.90;;;;;;;9.59;100.00;153823.16;5075812;28;20828;-77
2023/03/10 09:25:21;;;;;;;2.60;1.03;;;;;;;9.73;100.00;153858.09;5086911;28;20468;-77
2023/03/10 09:27:48;;;;;;;1.83;0.80;;;;;;;9.88;100.00;153896.91;5097702;28;20555;-77
2023/03/10 09:30:16;;;;;;;1.77;0.73;;;;;;;10.01;100.00;153929.25;5095829;28;20477;-77
2023/03/10 09:32:44;;;;;;;1.67;0.70;;;;;;;10.11;100.00;153955.19;5087675;28;20436;-77
2023/03/10 09:35:12;;;;;;;2.30;0.80;;;;;;;10.29;100.00;154003.13;5075324;28;20449;-77
2023/03/10 09:37:39;;;;;;;1.10;0.60;;;;;;;10.43;100.00;154036.78;5079833;28;20437;-77
2023/03/10 09:40:09;;;;;;;1.97;0.80;;;;;;;10.47;100.00;154047.13;5075781;28;20476;-77
2023/03/10 09:42:39;;;;;;;1.43;0.57;;;;;;;10.46;100.00;154045.81;5091883;28;20445;-78
2023/03/10 09:45:17;;;;;;;1.10;0.60;;;;;;;10.47;100.00;154048.41;5093635;28;20556;-77
2023/03/10 09:47:55;;;;;;;1.13;0.50;;;;;;;10.45;100.00;154043.25;5091204;28;20502;-78
2023/03/10 09:50:33;;;;;;;1.20;0.73;;;;;;;10.43;100.00;154038.09;5078252;28;20449;-77
2023/03/10 09:53:06;;;;;;;1.43;0.50;;;;;;;10.51;100.00;154058.75;5078411;28;20543;-77
2023/03/10 09:55:35;;;;;;;1.73;0.73;;;;;;;10.55;100.00;154069.13;5093517;28;20445;-77
2023/03/10 09:58:02;;;;;;;1.63;0.60;;;;;;;10.48;100.00;154051.03;5085305;28;20446;-77
2023/03/10 10:00:33;;;;;;;2.60;0.60;;;;;;;10.50;100.00;154056.19;5074018;28;20454;-77
2023/03/10 10:03:04;;;;;;;2.60;0.70;;;;;;;10.50;100.00;154056.19;5091483;28;20542;-77
2023/03/10 10:05:34;;;;;;;1.77;0.60;;;;;;;10.54;100.00;154066.53;5093823;28;20808;-77
2023/03/10 10:08:06;;;;;;;1.33;0.53;;;;;;;10.61;100.00;154084.69;5074458;28;20440;-77
2023/03/10 10:10:36;;;;;;;1.13;0.70;;;;;;;10.61;100.00;154084.69;5093145;28;21123;-77
2023/03/10 10:13:11;;;;;;;1.10;0.70;;;;;;;10.60;100.00;154082.06;5096587;28;20521;-77
2023/03/10 10:15:39;;;;;;;1.97;0.70;;;;;;;10.64;100.00;154092.47;5094182;28;20946;-78
2023/03/10 10:18:12;;;;;;;1.10;0.50;;;;;;;10.58;100.00;154076.91;5094837;28;20480;-78
2023/03/10 10:20:43;;;;;;;1.70;0.70;;;;;;;10.55;100.00;154069.13;5096025;28;20436;-78
2023/03/10 10:23:16;;;;;;;1.47;0.60;;;;;;;10.55;100.00;154067.84;5095012;28;20544;-78
2023/03/10 10:25:43;;;;;;;11.07;0.73;;;;;;;10.56;100.00;154070.44;5075193;28;20449;-77
2023/03/10 10:28:19;;;;;;;1.40;0.57;;;;;;;10.59;100.00;154079.47;5078098;28;20460;-77
2023/03/10 10:30:46;;;;;;;1.30;0.70;;;;;;;10.54;100.00;154066.53;5099342;28;20542;-76
2023/03/10 10:33:14;;;;;;;1.10;0.40;;;;;;;10.57;100.00;154073.00;5095749;28;20448;-79
2023/03/10 10:35:44;;;;;;;1.63;0.50;;;;;;;10.57;100.00;154074.31;5098581;28;20456;-77
2023/03/10 10:38:23;;;;;;;2.10;0.43;;;;;;;10.58;100.00;154076.91;5099693;28;20514;-77
2023/03/10 10:40:52;;;;;;;0.90;0.40;;;;;;;10.56;100.00;154070.44;5100612;28;20453;-77
2023/03/10 10:43:21;;;;;;;1.30;0.40;;;;;;;10.56;100.00;154071.75;5082119;28;20453;-77
2023/03/10 10:45:53;;;;;;;1.13;0.40;;;;;;;10.54;100.00;154066.53;5094635;28;20470;-77
2023/03/10 10:48:35;;;;;;;1.50;0.60;;;;;;;10.45;100.00;154043.25;5090546;28;20455;-77
2023/03/10 10:51:04;;;;;;;2.23;0.50;;;;;;;10.40;100.00;154030.31;5080944;28;20432;-77
2023/03/10 10:53:33;;;;;;;2.50;0.60;;;;;;;10.36;100.00;154019.94;5084329;28;20445;-78
2023/03/10 10:56:03;;;;;;;2.87;0.60;;;;;;;10.41;100.00;154032.88;5079189;28;20448;-78
2023/03/10 10:58:32;;;;;;;1.03;0.73;;;;;;;10.43;100.00;154038.09;5080520;28;20869;-78
2023/03/10 11:01:01;;;;;;;1.30;0.50;;;;;;;10.51;100.00;154058.75;5093106;27;20913;-78
2023/03/10 11:03:30;;;;;;;1.53;0.50;;;;;;;10.56;100.00;154071.75;5097284;28;20479;-78
2023/03/10 11:05:59;;;;;;;1.50;0.67;;;;;;;10.52;100.00;154060.06;5080569;28;20457;-78
2023/03/10 11:08:39;;;;;;;1.43;0.40;;;;;;;10.59;100.00;154079.47;5082464;28;21031;-78
2023/03/10 11:11:21;;;;;;;1.47;0.80;;;;;;;10.59;100.00;154078.22;5098074;28;20463;-77
2023/03/10 11:13:58;;;;;;;2.07;0.90;;;;;;;10.66;100.00;154097.63;5084343;27;20975;-77
2023/03/10 11:16:28;;;;;;;1.43;0.90;;;;;;;10.73;100.00;154114.44;5093637;28;20932;-78
2023/03/10 11:18:58;;;;;;;1.17;0.67;;;;;;;10.73;100.00;154115.75;5092960;28;20545;-78
2023/03/10 11:21:27;;;;;;;1.40;0.50;;;;;;;10.68;100.00;154102.78;5075795;28;20456;-78
2023/03/10 11:24:00;;;;;;;1.60;0.70;;;;;;;10.71;100.00;154110.56;5081291;28;20457;-78
2023/03/10 11:26:36;;;;;;;1.20;0.60;;;;;;;10.75;100.00;154120.91;5098783;28;20445;-78
2023/03/10 11:29:06;;;;;;;1.07;0.40;;;;;;;10.79;100.00;154131.28;5080771;28;20958;-78
2023/03/10 11:31:39;;;;;;;7.67;1.10;;;;;;;10.82;100.00;154137.78;5078210;28;20448;-78
2023/03/10 11:34:17;;;;;;;1.43;0.70;;;;;;;10.78;100.00;154127.38;5080341;28;20802;-78